sensor_id;sensor_type;location;lat;lon;timestamp;P1;durP1;ratioP1;P2;durP2;ratioP2
18526;SDS011;9393;42.158;24.748;2023-11-19T00:01:11;2.13;;;1.20;;
18526;SDS011;9393;42.158;24.748;2023-11-19T00:04:16;1.27;;;1.17;;
18526;SDS011;9393;42.158;24.748;2023-11-19T00:07:20;3.90;;;1.00;;
18526;SDS011;9393;42.158;24.748;2023-11-19T00:10:31;1.87;;;1.37;;
18526;SDS011;9393;42.158;24.748;2023-11-19T00:13:35;2.13;;;1.00;;
18526;SDS011;9393;42.158;24.748;2023-11-19T00:16:41;1.83;;;1.50;;
18526;SDS011;9393;42.158;24.748;2023-11-19T00:19:45;2.60;;;1.63;;
18526;SDS011;9393;42.158;24.748;2023-11-19T00:22:49;1.27;;;1.07;;
18526;SDS011;9393;42.158;24.748;2023-11-19T00:25:54;1.73;;;1.10;;
18526;SDS011;9393;42.158;24.748;2023-11-19T00:28:59;2.67;;;1.10;;
18526;SDS011;9393;42.158;24.748;2023-11-19T00:32:05;1.53;;;1.10;;
18526;SDS011;9393;42.158;24.748;2023-11-19T00:35:10;4.70;;;1.17;;
18526;SDS011;9393;42.158;24.748;2023-11-19T00:38:17;1.40;;;1.20;;
18526;SDS011;9393;42.158;24.748;2023-11-19T00:41:21;1.80;;;1.30;;
18526;SDS011;9393;42.158;24.748;2023-11-19T00:44:26;1.17;;;1.07;;
18526;SDS011;9393;42.158;24.748;2023-11-19T00:47:31;1.10;;;1.00;;
18526;SDS011;9393;42.158;24.748;2023-11-19T00:50:35;6.27;;;1.30;;
18526;SDS011;9393;42.158;24.748;2023-11-19T00:53:42;1.70;;;1.30;;
18526;SDS011;9393;42.158;24.748;2023-11-19T00:56:46;0.93;;;0.70;;
18526;SDS011;9393;42.158;24.748;2023-11-19T00:59:51;2.00;;;1.50;;
18526;SDS011;9393;42.158;24.748;2023-11-19T01:02:56;1.93;;;1.50;;
18526;SDS011;9393;42.158;24.748;2023-11-19T01:06:02;3.10;;;1.97;;
18526;SDS011;9393;42.158;24.748;2023-11-19T01:09:08;1.20;;;1.10;;
18526;SDS011;9393;42.158;24.748;2023-11-19T01:12:12;2.33;;;0.83;;
18526;SDS011;9393;42.158;24.748;2023-11-19T01:15:17;1.87;;;1.33;;
18526;SDS011;9393;42.158;24.748;2023-11-19T01:18:24;1.70;;;1.20;;
18526;SDS011;9393;42.158;24.748;2023-11-19T01:21:28;2.30;;;1.00;;
18526;SDS011;9393;42.158;24.748;2023-11-19T01:24:32;1.47;;;1.30;;
18526;SDS011;9393;42.158;24.748;2023-11-19T01:27:37;3.60;;;1.50;;
18526;SDS011;9393;42.158;24.748;2023-11-19T01:30:41;1.37;;;1.23;;
18526;SDS011;9393;42.158;24.748;2023-11-19T01:33:47;1.80;;;1.30;;
18526;SDS011;9393;42.158;24.748;2023-11-19T01:36:52;5.30;;;1.50;;
18526;SDS011;9393;42.158;24.748;2023-11-19T01:39:56;1.93;;;1.27;;
18526;SDS011;9393;42.158;24.748;2023-11-19T01:43:01;1.40;;;1.30;;
18526;SDS011;9393;42.158;24.748;2023-11-19T01:46:05;1.97;;;1.30;;
18526;SDS011;9393;42.158;24.748;2023-11-19T01:49:14;1.57;;;1.30;;
18526;SDS011;9393;42.158;24.748;2023-11-19T01:52:20;1.10;;;1.00;;
18526;SDS011;9393;42.158;24.748;2023-11-19T01:55:25;3.90;;;1.47;;
18526;SDS011;9393;42.158;24.748;2023-11-19T01:58:30;1.40;;;1.20;;
18526;SDS011;9393;42.158;24.748;2023-11-19T02:01:35;1.80;;;1.50;;
18526;SDS011;9393;42.158;24.748;2023-11-19T02:04:43;1.70;;;1.40;;
18526;SDS011;9393;42.158;24.748;2023-11-19T02:07:49;1.60;;;1.27;;
18526;SDS011;9393;42.158;24.748;2023-11-19T02:10:53;1.30;;;1.20;;
18526;SDS011;9393;42.158;24.748;2023-11-19T02:13:59;2.07;;;1.60;;
18526;SDS011;9393;42.158;24.748;2023-11-19T02:17:03;2.77;;;1.27;;
18526;SDS011;9393;42.158;24.748;2023-11-19T02:20:10;2.17;;;1.40;;
18526;SDS011;9393;42.158;24.748;2023-11-19T02:23:17;1.37;;;1.27;;
18526;SDS011;9393;42.158;24.748;2023-11-19T02:26:24;1.97;;;1.43;;
18526;SDS011;9393;42.158;24.748;2023-11-19T02:29:38;2.40;;;1.43;;
18526;SDS011;9393;42.158;24.748;2023-11-19T02:32:42;1.73;;;1.43;;
18526;SDS011;9393;42.158;24.748;2023-11-19T02:35:47;1.50;;;1.40;;
18526;SDS011;9393;42.158;24.748;2023-11-19T02:38:51;1.57;;;1.47;;
18526;SDS011;9393;42.158;24.748;2023-11-19T02:41:55;2.23;;;1.10;;
18526;SDS011;9393;42.158;24.748;2023-11-19T02:45:01;1.63;;;1.50;;
18526;SDS011;9393;42.158;24.748;2023-11-19T02:48:08;1.57;;;1.33;;
18526;SDS011;9393;42.158;24.748;2023-11-19T02:51:13;1.60;;;1.07;;
18526;SDS011;9393;42.158;24.748;2023-11-19T02:54:17;1.97;;;1.30;;
18526;SDS011;9393;42.158;24.748;2023-11-19T02:57:21;1.60;;;1.50;;
18526;SDS011;9393;42.158;24.748;2023-11-19T03:00:28;2.20;;;1.47;;
18526;SDS011;9393;42.158;24.748;2023-11-19T03:03:39;1.63;;;1.47;;
18526;SDS011;9393;42.158;24.748;2023-11-19T03:06:44;1.93;;;1.37;;
18526;SDS011;9393;42.158;24.748;2023-11-19T03:09:48;2.27;;;1.60;;
18526;SDS011;9393;42.158;24.748;2023-11-19T03:12:52;1.20;;;1.10;;
18526;SDS011;9393;42.158;24.748;2023-11-19T03:16:00;1.60;;;1.17;;
18526;SDS011;9393;42.158;24.748;2023-11-19T03:19:05;4.67;;;1.33;;
18526;SDS011;9393;42.158;24.748;2023-11-19T03:22:09;1.73;;;1.50;;
18526;SDS011;9393;42.158;24.748;2023-11-19T03:25:14;1.80;;;1.20;;
18526;SDS011;9393;42.158;24.748;2023-11-19T03:28:18;2.20;;;1.53;;
18526;SDS011;9393;42.158;24.748;2023-11-19T03:31:24;1.77;;;1.60;;
18526;SDS011;9393;42.158;24.748;2023-11-19T03:34:28;2.63;;;1.60;;
18526;SDS011;9393;42.158;24.748;2023-11-19T03:37:33;1.63;;;1.43;;
18526;SDS011;9393;42.158;24.748;2023-11-19T03:40:38;3.07;;;1.57;;
18526;SDS011;9393;42.158;24.748;2023-11-19T03:43:43;1.50;;;1.40;;
18526;SDS011;9393;42.158;24.748;2023-11-19T03:46:48;4.50;;;1.33;;
18526;SDS011;9393;42.158;24.748;2023-11-19T03:49:53;2.23;;;1.90;;
18526;SDS011;9393;42.158;24.748;2023-11-19T03:52:57;5.40;;;2.20;;
18526;SDS011;9393;42.158;24.748;2023-11-19T03:56:01;2.57;;;1.60;;
18526;SDS011;9393;42.158;24.748;2023-11-19T03:59:06;2.43;;;1.30;;
18526;SDS011;9393;42.158;24.748;2023-11-19T04:02:12;1.80;;;1.70;;
18526;SDS011;9393;42.158;24.748;2023-11-19T04:05:16;1.67;;;1.57;;
18526;SDS011;9393;42.158;24.748;2023-11-19T04:08:22;2.20;;;1.67;;
18526;SDS011;9393;42.158;24.748;2023-11-19T04:11:26;1.80;;;1.70;;
18526;SDS011;9393;42.158;24.748;2023-11-19T04:14:30;1.63;;;1.23;;
18526;SDS011;9393;42.158;24.748;2023-11-19T04:17:36;2.23;;;1.80;;
18526;SDS011;9393;42.158;24.748;2023-11-19T04:20:40;1.37;;;1.27;;
18526;SDS011;9393;42.158;24.748;2023-11-19T04:23:45;1.40;;;1.30;;
18526;SDS011;9393;42.158;24.748;2023-11-19T04:26:49;1.63;;;1.53;;
18526;SDS011;9393;42.158;24.748;2023-11-19T04:29:54;1.40;;;1.30;;
18526;SDS011;9393;42.158;24.748;2023-11-19T04:33:00;2.13;;;1.30;;
18526;SDS011;9393;42.158;24.748;2023-11-19T04:36:05;1.63;;;1.40;;
18526;SDS011;9393;42.158;24.748;2023-11-19T04:39:09;1.10;;;1.00;;
18526;SDS011;9393;42.158;24.748;2023-11-19T04:42:14;1.90;;;1.30;;
18526;SDS011;9393;42.158;24.748;2023-11-19T04:45:19;2.30;;;1.70;;
18526;SDS011;9393;42.158;24.748;2023-11-19T04:48:25;1.83;;;1.67;;
18526;SDS011;9393;42.158;24.748;2023-11-19T04:51:42;1.60;;;1.37;;
18526;SDS011;9393;42.158;24.748;2023-11-19T04:54:49;2.17;;;1.63;;
18526;SDS011;9393;42.158;24.748;2023-11-19T04:57:53;1.50;;;1.30;;
18526;SDS011;9393;42.158;24.748;2023-11-19T05:00:58;1.73;;;1.63;;
18526;SDS011;9393;42.158;24.748;2023-11-19T05:04:04;2.10;;;1.90;;
18526;SDS011;9393;42.158;24.748;2023-11-19T05:07:10;1.80;;;1.70;;
18526;SDS011;9393;42.158;24.748;2023-11-19T05:10:15;1.70;;;1.50;;
18526;SDS011;9393;42.158;24.748;2023-11-19T05:13:20;2.23;;;1.73;;
18526;SDS011;9393;42.158;24.748;2023-11-19T05:16:24;1.87;;;1.70;;
18526;SDS011;9393;42.158;24.748;2023-11-19T05:19:30;1.87;;;1.40;;
18526;SDS011;9393;42.158;24.748;2023-11-19T05:22:34;2.07;;;1.50;;
18526;SDS011;9393;42.158;24.748;2023-11-19T05:25:39;2.30;;;1.60;;
18526;SDS011;9393;42.158;24.748;2023-11-19T05:28:44;9.90;;;1.93;;
18526;SDS011;9393;42.158;24.748;2023-11-19T05:31:48;1.90;;;1.47;;
18526;SDS011;9393;42.158;24.748;2023-11-19T05:34:53;2.53;;;1.73;;
18526;SDS011;9393;42.158;24.748;2023-11-19T05:37:58;5.43;;;2.00;;
18526;SDS011;9393;42.158;24.748;2023-11-19T05:41:04;2.10;;;1.90;;
18526;SDS011;9393;42.158;24.748;2023-11-19T05:44:09;2.27;;;1.90;;
18526;SDS011;9393;42.158;24.748;2023-11-19T05:47:13;2.20;;;1.90;;
18526;SDS011;9393;42.158;24.748;2023-11-19T05:50:19;1.73;;;1.50;;
18526;SDS011;9393;42.158;24.748;2023-11-19T05:53:24;2.17;;;1.97;;
18526;SDS011;9393;42.158;24.748;2023-11-19T05:56:28;2.60;;;2.40;;
18526;SDS011;9393;42.158;24.748;2023-11-19T05:59:34;2.17;;;1.83;;
18526;SDS011;9393;42.158;24.748;2023-11-19T06:02:39;2.00;;;1.90;;
18526;SDS011;9393;42.158;24.748;2023-11-19T06:05:45;2.03;;;1.83;;
18526;SDS011;9393;42.158;24.748;2023-11-19T06:08:49;2.10;;;1.60;;
18526;SDS011;9393;42.158;24.748;2023-11-19T06:11:54;1.70;;;1.60;;
18526;SDS011;9393;42.158;24.748;2023-11-19T06:14:59;2.17;;;1.40;;
18526;SDS011;9393;42.158;24.748;2023-11-19T06:18:04;2.33;;;1.60;;
18526;SDS011;9393;42.158;24.748;2023-11-19T06:21:10;2.53;;;2.03;;
18526;SDS011;9393;42.158;24.748;2023-11-19T06:24:15;4.53;;;1.50;;
18526;SDS011;9393;42.158;24.748;2023-11-19T06:27:19;2.03;;;1.77;;
18526;SDS011;9393;42.158;24.748;2023-11-19T06:30:25;1.70;;;1.60;;
18526;SDS011;9393;42.158;24.748;2023-11-19T06:33:36;2.13;;;1.50;;
18526;SDS011;9393;42.158;24.748;2023-11-19T06:36:50;3.50;;;1.90;;
18526;SDS011;9393;42.158;24.748;2023-11-19T06:39:55;2.27;;;1.70;;
18526;SDS011;9393;42.158;24.748;2023-11-19T06:42:59;1.50;;;1.40;;
18526;SDS011;9393;42.158;24.748;2023-11-19T06:46:05;2.50;;;1.73;;
18526;SDS011;9393;42.158;24.748;2023-11-19T06:49:09;1.30;;;1.20;;
18526;SDS011;9393;42.158;24.748;2023-11-19T06:52:15;2.50;;;1.50;;
18526;SDS011;9393;42.158;24.748;2023-11-19T06:55:20;1.30;;;1.20;;
18526;SDS011;9393;42.158;24.748;2023-11-19T06:58:24;2.33;;;1.70;;
18526;SDS011;9393;42.158;24.748;2023-11-19T07:01:29;2.70;;;2.00;;
18526;SDS011;9393;42.158;24.748;2023-11-19T07:04:38;2.07;;;1.87;;
18526;SDS011;9393;42.158;24.748;2023-11-19T07:07:45;2.47;;;1.90;;
18526;SDS011;9393;42.158;24.748;2023-11-19T07:10:49;2.27;;;1.40;;
18526;SDS011;9393;42.158;24.748;2023-11-19T07:13:53;2.43;;;1.50;;
18526;SDS011;9393;42.158;24.748;2023-11-19T07:16:57;2.00;;;1.73;;
18526;SDS011;9393;42.158;24.748;2023-11-19T07:20:02;2.10;;;1.40;;
18526;SDS011;9393;42.158;24.748;2023-11-19T07:23:09;3.23;;;2.07;;
18526;SDS011;9393;42.158;24.748;2023-11-19T07:26:14;2.70;;;2.43;;
18526;SDS011;9393;42.158;24.748;2023-11-19T07:29:19;2.20;;;1.80;;
18526;SDS011;9393;42.158;24.748;2023-11-19T07:32:26;3.17;;;2.20;;
18526;SDS011;9393;42.158;24.748;2023-11-19T07:35:31;2.33;;;1.90;;
18526;SDS011;9393;42.158;24.748;2023-11-19T07:38:37;2.80;;;1.97;;
18526;SDS011;9393;42.158;24.748;2023-11-19T07:41:42;2.10;;;1.90;;
18526;SDS011;9393;42.158;24.748;2023-11-19T07:44:46;3.13;;;1.50;;
18526;SDS011;9393;42.158;24.748;2023-11-19T07:47:50;3.07;;;1.80;;
18526;SDS011;9393;42.158;24.748;2023-11-19T07:50:54;1.37;;;1.27;;
18526;SDS011;9393;42.158;24.748;2023-11-19T07:54:04;2.10;;;1.43;;
18526;SDS011;9393;42.158;24.748;2023-11-19T07:57:09;3.57;;;1.47;;
18526;SDS011;9393;42.158;24.748;2023-11-19T08:00:14;2.17;;;1.50;;
18526;SDS011;9393;42.158;24.748;2023-11-19T08:03:18;2.30;;;1.80;;
18526;SDS011;9393;42.158;24.748;2023-11-19T08:06:24;2.33;;;1.60;;
18526;SDS011;9393;42.158;24.748;2023-11-19T08:09:30;1.80;;;1.60;;
18526;SDS011;9393;42.158;24.748;2023-11-19T08:12:34;1.57;;;1.23;;
18526;SDS011;9393;42.158;24.748;2023-11-19T08:15:39;2.30;;;1.23;;
18526;SDS011;9393;42.158;24.748;2023-11-19T08:18:43;1.70;;;1.60;;
18526;SDS011;9393;42.158;24.748;2023-11-19T08:21:47;1.50;;;1.30;;
18526;SDS011;9393;42.158;24.748;2023-11-19T08:24:53;2.00;;;1.40;;
18526;SDS011;9393;42.158;24.748;2023-11-19T08:27:57;2.40;;;1.63;;
18526;SDS011;9393;42.158;24.748;2023-11-19T08:31:02;4.23;;;2.03;;
18526;SDS011;9393;42.158;24.748;2023-11-19T08:34:07;2.60;;;1.87;;
18526;SDS011;9393;42.158;24.748;2023-11-19T08:37:12;3.53;;;2.30;;
18526;SDS011;9393;42.158;24.748;2023-11-19T08:40:18;5.00;;;2.70;;
18526;SDS011;9393;42.158;24.748;2023-11-19T08:43:22;3.03;;;2.40;;
18526;SDS011;9393;42.158;24.748;2023-11-19T08:46:26;2.80;;;2.10;;
18526;SDS011;9393;42.158;24.748;2023-11-19T08:49:30;3.40;;;1.50;;
18526;SDS011;9393;42.158;24.748;2023-11-19T08:52:35;2.23;;;1.63;;
18526;SDS011;9393;42.158;24.748;2023-11-19T08:55:40;2.60;;;2.07;;
18526;SDS011;9393;42.158;24.748;2023-11-19T08:58:45;3.03;;;1.80;;
18526;SDS011;9393;42.158;24.748;2023-11-19T09:01:49;3.27;;;2.20;;
18526;SDS011;9393;42.158;24.748;2023-11-19T09:04:53;3.43;;;2.63;;
18526;SDS011;9393;42.158;24.748;2023-11-19T09:07:58;2.17;;;1.80;;
18526;SDS011;9393;42.158;24.748;2023-11-19T09:11:07;3.43;;;2.10;;
18526;SDS011;9393;42.158;24.748;2023-11-19T09:14:12;2.70;;;1.90;;
18526;SDS011;9393;42.158;24.748;2023-11-19T09:17:16;1.43;;;1.30;;
18526;SDS011;9393;42.158;24.748;2023-11-19T09:20:21;4.30;;;2.30;;
18526;SDS011;9393;42.158;24.748;2023-11-19T09:23:25;2.40;;;2.10;;
18526;SDS011;9393;42.158;24.748;2023-11-19T09:26:33;2.03;;;1.70;;
18526;SDS011;9393;42.158;24.748;2023-11-19T09:29:38;1.80;;;1.70;;
18526;SDS011;9393;42.158;24.748;2023-11-19T09:32:42;1.53;;;1.43;;
18526;SDS011;9393;42.158;24.748;2023-11-19T09:35:47;2.07;;;1.47;;
18526;SDS011;9393;42.158;24.748;2023-11-19T09:38:52;2.63;;;1.67;;
18526;SDS011;9393;42.158;24.748;2023-11-19T09:41:58;2.03;;;1.60;;
18526;SDS011;9393;42.158;24.748;2023-11-19T09:45:03;3.70;;;2.00;;
18526;SDS011;9393;42.158;24.748;2023-11-19T09:48:10;3.00;;;1.70;;
18526;SDS011;9393;42.158;24.748;2023-11-19T09:51:16;2.93;;;1.70;;
18526;SDS011;9393;42.158;24.748;2023-11-19T09:54:20;3.47;;;1.67;;
18526;SDS011;9393;42.158;24.748;2023-11-19T09:57:25;2.90;;;1.87;;
18526;SDS011;9393;42.158;24.748;2023-11-19T10:00:34;1.80;;;1.50;;
18526;SDS011;9393;42.158;24.748;2023-11-19T10:03:39;2.47;;;1.93;;
18526;SDS011;9393;42.158;24.748;2023-11-19T10:06:46;2.27;;;1.50;;
18526;SDS011;9393;42.158;24.748;2023-11-19T10:09:51;2.43;;;1.70;;
18526;SDS011;9393;42.158;24.748;2023-11-19T10:12:57;1.63;;;1.43;;
18526;SDS011;9393;42.158;24.748;2023-11-19T10:16:03;1.97;;;1.77;;
18526;SDS011;9393;42.158;24.748;2023-11-19T10:19:12;2.70;;;2.33;;
18526;SDS011;9393;42.158;24.748;2023-11-19T10:22:23;2.90;;;2.47;;
18526;SDS011;9393;42.158;24.748;2023-11-19T10:25:29;2.53;;;1.90;;
18526;SDS011;9393;42.158;24.748;2023-11-19T10:28:40;2.20;;;2.00;;
18526;SDS011;9393;42.158;24.748;2023-11-19T10:31:55;3.77;;;2.73;;
18526;SDS011;9393;42.158;24.748;2023-11-19T10:35:20;3.07;;;2.30;;
18526;SDS011;9393;42.158;24.748;2023-11-19T10:38:25;2.33;;;1.80;;
18526;SDS011;9393;42.158;24.748;2023-11-19T10:41:30;2.43;;;1.93;;
18526;SDS011;9393;42.158;24.748;2023-11-19T10:44:37;3.07;;;2.20;;
18526;SDS011;9393;42.158;24.748;2023-11-19T10:47:42;2.53;;;2.07;;
18526;SDS011;9393;42.158;24.748;2023-11-19T10:50:48;2.77;;;1.50;;
18526;SDS011;9393;42.158;24.748;2023-11-19T10:53:58;3.47;;;1.80;;
18526;SDS011;9393;42.158;24.748;2023-11-19T10:57:07;2.13;;;1.93;;
18526;SDS011;9393;42.158;24.748;2023-11-19T11:00:17;2.70;;;2.03;;
18526;SDS011;9393;42.158;24.748;2023-11-19T11:03:25;2.73;;;2.20;;
18526;SDS011;9393;42.158;24.748;2023-11-19T11:06:33;1.60;;;1.50;;
18526;SDS011;9393;42.158;24.748;2023-11-19T11:09:38;3.23;;;2.30;;
18526;SDS011;9393;42.158;24.748;2023-11-19T11:12:44;1.83;;;1.40;;
18526;SDS011;9393;42.158;24.748;2023-11-19T11:15:53;2.87;;;2.37;;
18526;SDS011;9393;42.158;24.748;2023-11-19T11:19:00;2.27;;;2.00;;
18526;SDS011;9393;42.158;24.748;2023-11-19T11:22:05;2.50;;;1.60;;
18526;SDS011;9393;42.158;24.748;2023-11-19T11:25:22;2.90;;;2.10;;
18526;SDS011;9393;42.158;24.748;2023-11-19T11:28:35;3.37;;;2.27;;
18526;SDS011;9393;42.158;24.748;2023-11-19T11:31:48;2.67;;;2.17;;
18526;SDS011;9393;42.158;24.748;2023-11-19T11:35:09;2.80;;;2.30;;
18526;SDS011;9393;42.158;24.748;2023-11-19T11:38:22;2.87;;;1.93;;
18526;SDS011;9393;42.158;24.748;2023-11-19T11:41:27;1.40;;;1.27;;
18526;SDS011;9393;42.158;24.748;2023-11-19T11:48:11;2.40;;;2.07;;
18526;SDS011;9393;42.158;24.748;2023-11-19T11:51:18;2.40;;;1.90;;
18526;SDS011;9393;42.158;24.748;2023-11-19T11:55:04;2.97;;;2.03;;
18526;SDS011;9393;42.158;24.748;2023-11-19T11:58:11;1.87;;;1.70;;
18526;SDS011;9393;42.158;24.748;2023-11-19T12:01:16;2.77;;;2.17;;
18526;SDS011;9393;42.158;24.748;2023-11-19T12:04:27;3.33;;;2.03;;
18526;SDS011;9393;42.158;24.748;2023-11-19T12:07:32;2.40;;;2.20;;
18526;SDS011;9393;42.158;24.748;2023-11-19T12:10:43;1.63;;;1.50;;
18526;SDS011;9393;42.158;24.748;2023-11-19T12:13:56;2.67;;;2.37;;
18526;SDS011;9393;42.158;24.748;2023-11-19T12:17:03;2.30;;;2.10;;
18526;SDS011;9393;42.158;24.748;2023-11-19T12:20:29;3.10;;;2.50;;
18526;SDS011;9393;42.158;24.748;2023-11-19T12:23:45;4.30;;;2.97;;
18526;SDS011;9393;42.158;24.748;2023-11-19T12:26:53;2.30;;;1.90;;
18526;SDS011;9393;42.158;24.748;2023-11-19T12:29:59;2.87;;;2.57;;
18526;SDS011;9393;42.158;24.748;2023-11-19T12:33:07;2.97;;;2.17;;
18526;SDS011;9393;42.158;24.748;2023-11-19T12:36:14;3.03;;;2.60;;
18526;SDS011;9393;42.158;24.748;2023-11-19T12:39:18;3.37;;;2.80;;
18526;SDS011;9393;42.158;24.748;2023-11-19T12:42:34;2.83;;;2.53;;
18526;SDS011;9393;42.158;24.748;2023-11-19T12:45:39;4.47;;;3.40;;
18526;SDS011;9393;42.158;24.748;2023-11-19T12:48:43;5.37;;;3.50;;
18526;SDS011;9393;42.158;24.748;2023-11-19T12:51:49;4.30;;;3.03;;
18526;SDS011;9393;42.158;24.748;2023-11-19T12:54:53;3.83;;;3.23;;
18526;SDS011;9393;42.158;24.748;2023-11-19T12:57:58;8.40;;;2.43;;
18526;SDS011;9393;42.158;24.748;2023-11-19T13:01:02;3.10;;;2.50;;
18526;SDS011;9393;42.158;24.748;2023-11-19T13:04:17;4.07;;;3.30;;
18526;SDS011;9393;42.158;24.748;2023-11-19T13:07:23;4.83;;;3.30;;
18526;SDS011;9393;42.158;24.748;2023-11-19T13:10:27;2.73;;;2.33;;
18526;SDS011;9393;42.158;24.748;2023-11-19T13:13:32;3.60;;;3.30;;
18526;SDS011;9393;42.158;24.748;2023-11-19T13:16:38;4.40;;;3.17;;
18526;SDS011;9393;42.158;24.748;2023-11-19T13:19:42;3.00;;;2.67;;
18526;SDS011;9393;42.158;24.748;2023-11-19T13:22:55;5.00;;;3.50;;
18526;SDS011;9393;42.158;24.748;2023-11-19T13:26:03;4.97;;;2.57;;
18526;SDS011;9393;42.158;24.748;2023-11-19T13:29:08;3.30;;;2.53;;
18526;SDS011;9393;42.158;24.748;2023-11-19T13:32:13;2.23;;;2.03;;
18526;SDS011;9393;42.158;24.748;2023-11-19T13:35:18;4.03;;;2.40;;
18526;SDS011;9393;42.158;24.748;2023-11-19T13:38:24;4.23;;;2.50;;
18526;SDS011;9393;42.158;24.748;2023-11-19T13:41:28;5.27;;;2.43;;
18526;SDS011;9393;42.158;24.748;2023-11-19T13:44:32;2.53;;;2.30;;
18526;SDS011;9393;42.158;24.748;2023-11-19T13:47:37;2.90;;;2.00;;
18526;SDS011;9393;42.158;24.748;2023-11-19T13:50:43;5.43;;;2.80;;
18526;SDS011;9393;42.158;24.748;2023-11-19T13:53:49;3.63;;;2.47;;
18526;SDS011;9393;42.158;24.748;2023-11-19T13:56:54;3.03;;;2.33;;
18526;SDS011;9393;42.158;24.748;2023-11-19T14:00:00;3.20;;;2.60;;
18526;SDS011;9393;42.158;24.748;2023-11-19T14:03:09;3.60;;;2.67;;
18526;SDS011;9393;42.158;24.748;2023-11-19T14:06:14;2.50;;;2.30;;
18526;SDS011;9393;42.158;24.748;2023-11-19T14:09:20;2.97;;;2.17;;
18526;SDS011;9393;42.158;24.748;2023-11-19T14:12:24;5.00;;;2.67;;
18526;SDS011;9393;42.158;24.748;2023-11-19T14:15:30;2.93;;;2.43;;
18526;SDS011;9393;42.158;24.748;2023-11-19T14:18:34;11.10;;;5.80;;
18526;SDS011;9393;42.158;24.748;2023-11-19T14:21:39;4.10;;;2.80;;
18526;SDS011;9393;42.158;24.748;2023-11-19T14:24:44;2.90;;;2.40;;
18526;SDS011;9393;42.158;24.748;2023-11-19T14:27:49;4.87;;;3.30;;
18526;SDS011;9393;42.158;24.748;2023-11-19T14:30:53;3.00;;;2.57;;
18526;SDS011;9393;42.158;24.748;2023-11-19T14:33:59;3.37;;;2.50;;
18526;SDS011;9393;42.158;24.748;2023-11-19T14:37:04;3.83;;;1.90;;
18526;SDS011;9393;42.158;24.748;2023-11-19T14:40:10;3.40;;;2.80;;
18526;SDS011;9393;42.158;24.748;2023-11-19T14:43:15;3.90;;;2.50;;
18526;SDS011;9393;42.158;24.748;2023-11-19T14:46:19;3.83;;;2.80;;
18526;SDS011;9393;42.158;24.748;2023-11-19T14:49:24;4.30;;;2.27;;
18526;SDS011;9393;42.158;24.748;2023-11-19T14:52:29;3.90;;;1.83;;
18526;SDS011;9393;42.158;24.748;2023-11-19T14:55:35;5.10;;;3.07;;
18526;SDS011;9393;42.158;24.748;2023-11-19T14:58:40;3.30;;;2.73;;
18526;SDS011;9393;42.158;24.748;2023-11-19T15:01:44;4.17;;;2.73;;
18526;SDS011;9393;42.158;24.748;2023-11-19T15:04:49;4.43;;;2.97;;
18526;SDS011;9393;42.158;24.748;2023-11-19T15:07:53;4.50;;;3.07;;
18526;SDS011;9393;42.158;24.748;2023-11-19T15:10:59;3.67;;;2.47;;
18526;SDS011;9393;42.158;24.748;2023-11-19T15:14:04;3.77;;;2.83;;
18526;SDS011;9393;42.158;24.748;2023-11-19T15:17:09;4.17;;;2.97;;
18526;SDS011;9393;42.158;24.748;2023-11-19T15:20:13;2.80;;;2.33;;
18526;SDS011;9393;42.158;24.748;2023-11-19T15:23:21;3.20;;;2.40;;
18526;SDS011;9393;42.158;24.748;2023-11-19T15:26:27;4.60;;;3.30;;
18526;SDS011;9393;42.158;24.748;2023-11-19T15:29:31;3.53;;;2.53;;
18526;SDS011;9393;42.158;24.748;2023-11-19T15:32:36;3.80;;;2.77;;
18526;SDS011;9393;42.158;24.748;2023-11-19T15:35:41;5.00;;;3.07;;
18526;SDS011;9393;42.158;24.748;2023-11-19T15:38:46;4.73;;;2.90;;
18526;SDS011;9393;42.158;24.748;2023-11-19T15:41:54;5.03;;;3.50;;
18526;SDS011;9393;42.158;24.748;2023-11-19T15:45:00;4.67;;;3.03;;
18526;SDS011;9393;42.158;24.748;2023-11-19T15:48:07;5.30;;;3.67;;
18526;SDS011;9393;42.158;24.748;2023-11-19T15:51:11;4.83;;;2.47;;
18526;SDS011;9393;42.158;24.748;2023-11-19T15:54:15;6.23;;;3.63;;
18526;SDS011;9393;42.158;24.748;2023-11-19T15:57:21;4.73;;;3.37;;
18526;SDS011;9393;42.158;24.748;2023-11-19T16:00:25;3.70;;;2.83;;
18526;SDS011;9393;42.158;24.748;2023-11-19T16:03:30;3.43;;;2.63;;
18526;SDS011;9393;42.158;24.748;2023-11-19T16:06:53;6.97;;;3.30;;
18526;SDS011;9393;42.158;24.748;2023-11-19T16:09:57;3.80;;;2.80;;
18526;SDS011;9393;42.158;24.748;2023-11-19T16:13:03;3.43;;;2.50;;
18526;SDS011;9393;42.158;24.748;2023-11-19T16:16:09;5.43;;;2.90;;
18526;SDS011;9393;42.158;24.748;2023-11-19T16:19:13;4.07;;;3.00;;
18526;SDS011;9393;42.158;24.748;2023-11-19T16:22:17;4.03;;;2.53;;
18526;SDS011;9393;42.158;24.748;2023-11-19T16:25:25;4.37;;;3.10;;
18526;SDS011;9393;42.158;24.748;2023-11-19T16:28:31;4.20;;;3.13;;
18526;SDS011;9393;42.158;24.748;2023-11-19T16:31:37;4.80;;;2.60;;
18526;SDS011;9393;42.158;24.748;2023-11-19T16:34:45;4.17;;;2.17;;
18526;SDS011;9393;42.158;24.748;2023-11-19T16:37:50;2.20;;;2.00;;
18526;SDS011;9393;42.158;24.748;2023-11-19T16:40:54;3.90;;;2.40;;
18526;SDS011;9393;42.158;24.748;2023-11-19T16:44:02;4.93;;;2.53;;
18526;SDS011;9393;42.158;24.748;2023-11-19T16:47:07;4.47;;;2.70;;
18526;SDS011;9393;42.158;24.748;2023-11-19T16:50:11;3.97;;;2.90;;
18526;SDS011;9393;42.158;24.748;2023-11-19T16:53:18;6.30;;;3.63;;
18526;SDS011;9393;42.158;24.748;2023-11-19T16:56:22;4.67;;;3.27;;
18526;SDS011;9393;42.158;24.748;2023-11-19T16:59:29;3.87;;;2.70;;
18526;SDS011;9393;42.158;24.748;2023-11-19T17:02:34;3.37;;;2.30;;
18526;SDS011;9393;42.158;24.748;2023-11-19T17:05:41;3.83;;;3.00;;
18526;SDS011;9393;42.158;24.748;2023-11-19T17:08:45;8.80;;;2.90;;
18526;SDS011;9393;42.158;24.748;2023-11-19T17:11:49;6.03;;;3.10;;
18526;SDS011;9393;42.158;24.748;2023-11-19T17:14:55;7.10;;;3.30;;
18526;SDS011;9393;42.158;24.748;2023-11-19T17:18:06;3.20;;;2.50;;
18526;SDS011;9393;42.158;24.748;2023-11-19T17:21:10;2.97;;;2.27;;
18526;SDS011;9393;42.158;24.748;2023-11-19T17:24:15;3.70;;;2.73;;
18526;SDS011;9393;42.158;24.748;2023-11-19T17:27:19;5.13;;;3.10;;
18526;SDS011;9393;42.158;24.748;2023-11-19T17:30:27;3.90;;;2.80;;
18526;SDS011;9393;42.158;24.748;2023-11-19T17:33:31;4.17;;;2.87;;
18526;SDS011;9393;42.158;24.748;2023-11-19T17:36:35;5.63;;;3.33;;
18526;SDS011;9393;42.158;24.748;2023-11-19T17:39:40;5.10;;;3.57;;
18526;SDS011;9393;42.158;24.748;2023-11-19T17:42:44;4.67;;;3.30;;
18526;SDS011;9393;42.158;24.748;2023-11-19T17:45:58;5.43;;;3.03;;
18526;SDS011;9393;42.158;24.748;2023-11-19T17:49:04;3.33;;;2.50;;
18526;SDS011;9393;42.158;24.748;2023-11-19T17:52:09;2.37;;;1.80;;
18526;SDS011;9393;42.158;24.748;2023-11-19T17:55:13;3.90;;;2.30;;
18526;SDS011;9393;42.158;24.748;2023-11-19T17:58:17;3.30;;;2.33;;
18526;SDS011;9393;42.158;24.748;2023-11-19T18:01:23;3.70;;;2.50;;
18526;SDS011;9393;42.158;24.748;2023-11-19T18:04:28;3.57;;;2.60;;
18526;SDS011;9393;42.158;24.748;2023-11-19T18:07:32;3.40;;;2.53;;
18526;SDS011;9393;42.158;24.748;2023-11-19T18:10:36;3.47;;;2.23;;
18526;SDS011;9393;42.158;24.748;2023-11-19T18:13:41;3.10;;;2.50;;
18526;SDS011;9393;42.158;24.748;2023-11-19T18:16:47;2.83;;;2.23;;
18526;SDS011;9393;42.158;24.748;2023-11-19T18:19:52;3.17;;;2.30;;
18526;SDS011;9393;42.158;24.748;2023-11-19T18:22:57;5.53;;;2.77;;
18526;SDS011;9393;42.158;24.748;2023-11-19T18:26:03;6.97;;;2.77;;
18526;SDS011;9393;42.158;24.748;2023-11-19T18:29:08;4.57;;;2.63;;
18526;SDS011;9393;42.158;24.748;2023-11-19T18:32:14;3.00;;;1.90;;
18526;SDS011;9393;42.158;24.748;2023-11-19T18:35:19;2.80;;;2.40;;
18526;SDS011;9393;42.158;24.748;2023-11-19T18:38:26;4.33;;;2.23;;
18526;SDS011;9393;42.158;24.748;2023-11-19T18:41:34;4.00;;;2.83;;
18526;SDS011;9393;42.158;24.748;2023-11-19T18:44:38;3.97;;;2.73;;